sensor_id;sensor_type;location;lat;lon;timestamp;P1;durP1;ratioP1;P2;durP2;ratioP2
19919;SDS011;10122;50.074;19.920;2023-02-02T00:01:45;5.87;;;3.00;;
19919;SDS011;10122;50.074;19.920;2023-02-02T00:04:16;5.43;;;2.37;;
19919;SDS011;10122;50.074;19.920;2023-02-02T00:06:53;6.43;;;2.93;;
19919;SDS011;10122;50.074;19.920;2023-02-02T00:09:21;2.57;;;1.47;;
19919;SDS011;10122;50.074;19.920;2023-02-02T00:11:48;5.70;;;2.90;;
19919;SDS011;10122;50.074;19.920;2023-02-02T00:14:15;4.90;;;2.50;;
19919;SDS011;10122;50.074;19.920;2023-02-02T00:21:45;3.70;;;1.30;;
19919;SDS011;10122;50.074;19.920;2023-02-02T00:24:12;4.20;;;2.17;;
19919;SDS011;10122;50.074;19.920;2023-02-02T00:26:39;4.27;;;2.20;;
19919;SDS011;10122;50.074;19.920;2023-02-02T00:29:08;3.23;;;1.47;;
19919;SDS011;10122;50.074;19.920;2023-02-02T00:31:40;1.47;;;1.30;;
19919;SDS011;10122;50.074;19.920;2023-02-02T00:34:06;3.83;;;2.00;;
19919;SDS011;10122;50.074;19.920;2023-02-02T00:36:34;4.73;;;1.97;;
19919;SDS011;10122;50.074;19.920;2023-02-02T00:38:59;4.53;;;2.30;;
19919;SDS011;10122;50.074;19.920;2023-02-02T00:41:25;2.60;;;1.80;;
19919;SDS011;10122;50.074;19.920;2023-02-02T00:43:51;2.83;;;2.00;;
19919;SDS011;10122;50.074;19.920;2023-02-02T00:46:37;1.70;;;1.33;;
19919;SDS011;10122;50.074;19.920;2023-02-02T00:49:04;3.87;;;1.83;;
19919;SDS011;10122;50.074;19.920;2023-02-02T00:51:30;2.90;;;1.87;;
19919;SDS011;10122;50.074;19.920;2023-02-02T00:53:56;4.10;;;2.10;;
19919;SDS011;10122;50.074;19.920;2023-02-02T00:56:21;3.87;;;2.03;;
19919;SDS011;10122;50.074;19.920;2023-02-02T00:58:47;3.10;;;1.80;;
19919;SDS011;10122;50.074;19.920;2023-02-02T01:01:17;1.57;;;1.07;;
19919;SDS011;10122;50.074;19.920;2023-02-02T01:03:45;3.43;;;1.80;;
19919;SDS011;10122;50.074;19.920;2023-02-02T01:06:11;3.80;;;1.67;;
19919;SDS011;10122;50.074;19.920;2023-02-02T01:08:37;3.00;;;1.90;;
19919;SDS011;10122;50.074;19.920;2023-02-02T01:11:03;3.20;;;1.83;;
19919;SDS011;10122;50.074;19.920;2023-02-02T01:13:29;3.57;;;2.00;;
19919;SDS011;10122;50.074;19.920;2023-02-02T01:15:55;4.30;;;2.00;;
19919;SDS011;10122;50.074;19.920;2023-02-02T01:18:21;4.33;;;2.07;;
19919;SDS011;10122;50.074;19.920;2023-02-02T01:20:47;3.30;;;1.97;;
19919;SDS011;10122;50.074;19.920;2023-02-02T01:23:20;3.43;;;1.70;;
19919;SDS011;10122;50.074;19.920;2023-02-02T01:25:51;3.60;;;2.10;;
19919;SDS011;10122;50.074;19.920;2023-02-02T01:28:24;3.77;;;1.87;;
19919;SDS011;10122;50.074;19.920;2023-02-02T01:30:51;3.07;;;1.90;;
19919;SDS011;10122;50.074;19.920;2023-02-02T01:33:17;3.63;;;1.57;;
19919;SDS011;10122;50.074;19.920;2023-02-02T01:38:12;3.20;;;1.80;;
19919;SDS011;10122;50.074;19.920;2023-02-02T01:40:48;2.30;;;1.20;;
19919;SDS011;10122;50.074;19.920;2023-02-02T01:45:52;3.83;;;2.00;;
19919;SDS011;10122;50.074;19.920;2023-02-02T01:48:19;3.23;;;1.90;;
19919;SDS011;10122;50.074;19.920;2023-02-02T01:50:47;4.87;;;2.03;;
19919;SDS011;10122;50.074;19.920;2023-02-02T01:53:17;3.73;;;2.30;;
19919;SDS011;10122;50.074;19.920;2023-02-02T01:55:44;3.53;;;2.10;;
19919;SDS011;10122;50.074;19.920;2023-02-02T01:58:19;4.73;;;2.60;;
19919;SDS011;10122;50.074;19.920;2023-02-02T02:00:49;3.77;;;2.27;;
19919;SDS011;10122;50.074;19.920;2023-02-02T02:03:17;3.90;;;1.33;;
19919;SDS011;10122;50.074;19.920;2023-02-02T02:05:52;4.40;;;2.20;;
19919;SDS011;10122;50.074;19.920;2023-02-02T02:08:23;4.50;;;2.47;;
19919;SDS011;10122;50.074;19.920;2023-02-02T02:10:52;3.77;;;2.30;;
19919;SDS011;10122;50.074;19.920;2023-02-02T02:13:18;5.73;;;2.70;;
19919;SDS011;10122;50.074;19.920;2023-02-02T02:15:53;5.27;;;2.60;;
19919;SDS011;10122;50.074;19.920;2023-02-02T02:40:32;4.13;;;2.57;;
19919;SDS011;10122;50.074;19.920;2023-02-02T02:43:11;5.90;;;2.50;;
19919;SDS011;10122;50.074;19.920;2023-02-02T02:45:40;4.80;;;2.50;;
19919;SDS011;10122;50.074;19.920;2023-02-02T02:48:08;4.83;;;2.70;;
19919;SDS011;10122;50.074;19.920;2023-02-02T02:50:35;6.57;;;2.97;;
19919;SDS011;10122;50.074;19.920;2023-02-02T02:53:04;4.67;;;2.10;;
19919;SDS011;10122;50.074;19.920;2023-02-02T02:55:35;6.00;;;2.90;;
19919;SDS011;10122;50.074;19.920;2023-02-02T02:58:12;4.20;;;2.60;;
19919;SDS011;10122;50.074;19.920;2023-02-02T03:00:48;3.97;;;2.70;;
19919;SDS011;10122;50.074;19.920;2023-02-02T03:06:35;4.37;;;2.80;;
19919;SDS011;10122;50.074;19.920;2023-02-02T03:09:14;4.87;;;2.63;;
19919;SDS011;10122;50.074;19.920;2023-02-02T03:11:46;5.47;;;2.67;;
19919;SDS011;10122;50.074;19.920;2023-02-02T03:14:12;4.53;;;2.80;;
19919;SDS011;10122;50.074;19.920;2023-02-02T03:16:38;6.23;;;2.97;;
19919;SDS011;10122;50.074;19.920;2023-02-02T03:19:04;4.37;;;2.83;;
19919;SDS011;10122;50.074;19.920;2023-02-02T03:21:31;6.30;;;2.33;;
19919;SDS011;10122;50.074;19.920;2023-02-02T03:23:57;7.27;;;3.77;;
19919;SDS011;10122;50.074;19.920;2023-02-02T03:26:23;5.90;;;3.33;;
19919;SDS011;10122;50.074;19.920;2023-02-02T03:28:49;8.30;;;2.80;;
19919;SDS011;10122;50.074;19.920;2023-02-02T03:31:16;9.00;;;4.47;;
19919;SDS011;10122;50.074;19.920;2023-02-02T03:33:42;6.87;;;3.80;;
19919;SDS011;10122;50.074;19.920;2023-02-02T03:36:08;6.33;;;3.20;;
19919;SDS011;10122;50.074;19.920;2023-02-02T03:38:34;8.57;;;3.57;;
19919;SDS011;10122;50.074;19.920;2023-02-02T03:41:00;9.20;;;4.00;;
19919;SDS011;10122;50.074;19.920;2023-02-02T03:43:26;7.87;;;4.30;;
19919;SDS011;10122;50.074;19.920;2023-02-02T03:45:58;4.13;;;1.83;;
19919;SDS011;10122;50.074;19.920;2023-02-02T03:48:26;4.40;;;2.40;;
19919;SDS011;10122;50.074;19.920;2023-02-02T03:50:52;9.83;;;4.00;;
19919;SDS011;10122;50.074;19.920;2023-02-02T03:53:17;8.20;;;3.87;;
19919;SDS011;10122;50.074;19.920;2023-02-02T03:55:43;8.50;;;3.63;;
19919;SDS011;10122;50.074;19.920;2023-02-02T03:58:09;7.33;;;3.67;;
19919;SDS011;10122;50.074;19.920;2023-02-02T04:00:35;6.63;;;3.27;;
19919;SDS011;10122;50.074;19.920;2023-02-02T04:03:01;5.33;;;3.40;;
19919;SDS011;10122;50.074;19.920;2023-02-02T04:05:26;8.37;;;3.80;;
19919;SDS011;10122;50.074;19.920;2023-02-02T04:07:53;6.73;;;3.53;;
19919;SDS011;10122;50.074;19.920;2023-02-02T04:10:19;8.60;;;4.13;;
19919;SDS011;10122;50.074;19.920;2023-02-02T04:12:45;2.57;;;1.50;;
19919;SDS011;10122;50.074;19.920;2023-02-02T04:15:10;6.43;;;3.33;;
19919;SDS011;10122;50.074;19.920;2023-02-02T04:17:36;7.77;;;3.80;;
19919;SDS011;10122;50.074;19.920;2023-02-02T04:20:03;8.20;;;3.80;;
19919;SDS011;10122;50.074;19.920;2023-02-02T04:22:30;6.60;;;3.00;;
19919;SDS011;10122;50.074;19.920;2023-02-02T04:24:55;6.20;;;2.87;;
19919;SDS011;10122;50.074;19.920;2023-02-02T04:27:21;4.47;;;2.60;;
19919;SDS011;10122;50.074;19.920;2023-02-02T04:29:47;6.83;;;3.67;;
19919;SDS011;10122;50.074;19.920;2023-02-02T04:32:14;8.13;;;3.63;;
19919;SDS011;10122;50.074;19.920;2023-02-02T04:34:40;8.50;;;3.63;;
19919;SDS011;10122;50.074;19.920;2023-02-02T04:37:06;10.07;;;3.73;;
19919;SDS011;10122;50.074;19.920;2023-02-02T04:39:32;7.80;;;3.53;;
19919;SDS011;10122;50.074;19.920;2023-02-02T04:41:57;6.20;;;3.23;;
19919;SDS011;10122;50.074;19.920;2023-02-02T04:44:23;4.30;;;2.67;;
19919;SDS011;10122;50.074;19.920;2023-02-02T04:46:49;7.60;;;3.60;;
19919;SDS011;10122;50.074;19.920;2023-02-02T04:49:14;10.00;;;3.50;;
19919;SDS011;10122;50.074;19.920;2023-02-02T04:51:40;8.77;;;3.70;;
19919;SDS011;10122;50.074;19.920;2023-02-02T04:54:06;6.37;;;2.80;;
19919;SDS011;10122;50.074;19.920;2023-02-02T04:56:32;9.00;;;3.50;;
19919;SDS011;10122;50.074;19.920;2023-02-02T04:58:58;8.90;;;3.50;;
19919;SDS011;10122;50.074;19.920;2023-02-02T05:01:24;5.57;;;2.57;;
19919;SDS011;10122;50.074;19.920;2023-02-02T05:03:50;4.00;;;2.23;;
19919;SDS011;10122;50.074;19.920;2023-02-02T05:06:16;7.97;;;3.20;;
19919;SDS011;10122;50.074;19.920;2023-02-02T05:08:43;4.37;;;2.47;;
19919;SDS011;10122;50.074;19.920;2023-02-02T05:11:09;3.50;;;1.33;;
19919;SDS011;10122;50.074;19.920;2023-02-02T05:13:43;9.20;;;3.23;;
19919;SDS011;10122;50.074;19.920;2023-02-02T05:16:10;5.20;;;2.07;;
19919;SDS011;10122;50.074;19.920;2023-02-02T05:18:36;7.27;;;2.47;;
19919;SDS011;10122;50.074;19.920;2023-02-02T05:21:02;6.03;;;2.10;;
19919;SDS011;10122;50.074;19.920;2023-02-02T05:23:28;5.30;;;2.20;;
19919;SDS011;10122;50.074;19.920;2023-02-02T05:25:54;7.63;;;2.60;;
19919;SDS011;10122;50.074;19.920;2023-02-02T05:28:21;8.10;;;2.70;;
19919;SDS011;10122;50.074;19.920;2023-02-02T05:30:47;7.70;;;2.50;;
19919;SDS011;10122;50.074;19.920;2023-02-02T05:33:14;7.33;;;2.60;;
19919;SDS011;10122;50.074;19.920;2023-02-02T05:35:43;6.63;;;2.60;;
19919;SDS011;10122;50.074;19.920;2023-02-02T05:38:09;6.27;;;2.40;;
19919;SDS011;10122;50.074;19.920;2023-02-02T05:40:35;7.27;;;2.30;;
19919;SDS011;10122;50.074;19.920;2023-02-02T05:43:01;7.20;;;2.40;;
19919;SDS011;10122;50.074;19.920;2023-02-02T05:45:26;5.80;;;2.33;;
19919;SDS011;10122;50.074;19.920;2023-02-02T05:47:53;5.90;;;2.30;;
19919;SDS011;10122;50.074;19.920;2023-02-02T05:50:19;6.80;;;2.80;;
19919;SDS011;10122;50.074;19.920;2023-02-02T05:52:45;8.97;;;2.63;;
19919;SDS011;10122;50.074;19.920;2023-02-02T05:55:11;5.50;;;2.60;;
19919;SDS011;10122;50.074;19.920;2023-02-02T05:57:37;9.83;;;2.90;;
19919;SDS011;10122;50.074;19.920;2023-02-02T06:00:03;5.13;;;1.90;;
19919;SDS011;10122;50.074;19.920;2023-02-02T06:02:30;9.20;;;2.80;;
19919;SDS011;10122;50.074;19.920;2023-02-02T06:04:55;7.93;;;2.93;;
19919;SDS011;10122;50.074;19.920;2023-02-02T06:07:21;7.53;;;2.60;;
19919;SDS011;10122;50.074;19.920;2023-02-02T06:09:47;6.73;;;2.90;;
19919;SDS011;10122;50.074;19.920;2023-02-02T06:12:12;6.17;;;2.40;;
19919;SDS011;10122;50.074;19.920;2023-02-02T06:14:38;8.23;;;2.93;;
19919;SDS011;10122;50.074;19.920;2023-02-02T06:17:04;7.43;;;2.63;;
19919;SDS011;10122;50.074;19.920;2023-02-02T06:19:30;8.10;;;2.63;;
19919;SDS011;10122;50.074;19.920;2023-02-02T06:21:56;8.07;;;2.80;;
19919;SDS011;10122;50.074;19.920;2023-02-02T06:24:22;8.53;;;3.13;;
19919;SDS011;10122;50.074;19.920;2023-02-02T06:26:48;7.57;;;2.50;;
19919;SDS011;10122;50.074;19.920;2023-02-02T06:29:14;6.13;;;2.30;;
19919;SDS011;10122;50.074;19.920;2023-02-02T06:31:40;2.23;;;1.20;;
19919;SDS011;10122;50.074;19.920;2023-02-02T06:34:06;8.80;;;2.47;;
19919;SDS011;10122;50.074;19.920;2023-02-02T06:36:32;6.80;;;2.73;;
19919;SDS011;10122;50.074;19.920;2023-02-02T06:38:58;6.47;;;2.30;;
19919;SDS011;10122;50.074;19.920;2023-02-02T06:41:24;5.13;;;2.07;;
19919;SDS011;10122;50.074;19.920;2023-02-02T06:43:50;7.20;;;2.33;;
19919;SDS011;10122;50.074;19.920;2023-02-02T06:46:16;7.97;;;2.80;;
19919;SDS011;10122;50.074;19.920;2023-02-02T06:48:42;8.40;;;2.37;;
19919;SDS011;10122;50.074;19.920;2023-02-02T06:51:07;4.70;;;1.90;;
19919;SDS011;10122;50.074;19.920;2023-02-02T06:53:33;4.10;;;1.93;;
19919;SDS011;10122;50.074;19.920;2023-02-02T06:56:05;0.80;;;0.70;;
19919;SDS011;10122;50.074;19.920;2023-02-02T06:58:33;2.27;;;1.10;;
19919;SDS011;10122;50.074;19.920;2023-02-02T07:01:05;5.67;;;1.87;;
19919;SDS011;10122;50.074;19.920;2023-02-02T07:03:32;8.83;;;2.60;;
19919;SDS011;10122;50.074;19.920;2023-02-02T07:05:59;1.83;;;1.10;;
19919;SDS011;10122;50.074;19.920;2023-02-02T07:08:35;7.23;;;2.30;;
19919;SDS011;10122;50.074;19.920;2023-02-02T07:11:00;7.00;;;1.90;;
19919;SDS011;10122;50.074;19.920;2023-02-02T07:13:26;6.57;;;2.00;;
19919;SDS011;10122;50.074;19.920;2023-02-02T07:15:52;5.20;;;2.00;;
19919;SDS011;10122;50.074;19.920;2023-02-02T07:18:18;5.40;;;1.83;;
19919;SDS011;10122;50.074;19.920;2023-02-02T07:20:44;1.80;;;1.10;;
19919;SDS011;10122;50.074;19.920;2023-02-02T07:23:10;2.10;;;1.07;;
19919;SDS011;10122;50.074;19.920;2023-02-02T07:25:36;3.97;;;1.63;;
19919;SDS011;10122;50.074;19.920;2023-02-02T07:28:02;3.53;;;1.70;;
19919;SDS011;10122;50.074;19.920;2023-02-02T07:30:27;4.10;;;1.90;;
19919;SDS011;10122;50.074;19.920;2023-02-02T07:32:53;4.37;;;1.93;;
19919;SDS011;10122;50.074;19.920;2023-02-02T07:35:19;4.67;;;1.60;;
19919;SDS011;10122;50.074;19.920;2023-02-02T07:37:50;7.47;;;2.20;;
19919;SDS011;10122;50.074;19.920;2023-02-02T07:40:19;3.00;;;1.63;;
19919;SDS011;10122;50.074;19.920;2023-02-02T07:42:46;5.60;;;1.90;;
19919;SDS011;10122;50.074;19.920;2023-02-02T07:45:12;5.97;;;1.83;;
19919;SDS011;10122;50.074;19.920;2023-02-02T07:47:38;3.43;;;1.13;;
19919;SDS011;10122;50.074;19.920;2023-02-02T07:50:04;5.83;;;2.13;;
19919;SDS011;10122;50.074;19.920;2023-02-02T07:52:30;3.90;;;1.70;;
19919;SDS011;10122;50.074;19.920;2023-02-02T07:54:56;2.53;;;1.30;;
19919;SDS011;10122;50.074;19.920;2023-02-02T07:57:21;6.70;;;1.70;;
19919;SDS011;10122;50.074;19.920;2023-02-02T07:59:47;2.37;;;1.27;;
19919;SDS011;10122;50.074;19.920;2023-02-02T08:02:14;3.90;;;1.13;;
19919;SDS011;10122;50.074;19.920;2023-02-02T08:04:40;4.67;;;1.90;;
19919;SDS011;10122;50.074;19.920;2023-02-02T08:07:06;6.53;;;1.83;;
19919;SDS011;10122;50.074;19.920;2023-02-02T08:09:32;0.93;;;0.70;;
19919;SDS011;10122;50.074;19.920;2023-02-02T08:11:58;6.83;;;2.20;;
19919;SDS011;10122;50.074;19.920;2023-02-02T08:14:26;5.67;;;1.83;;
19919;SDS011;10122;50.074;19.920;2023-02-02T08:16:52;6.83;;;2.53;;
19919;SDS011;10122;50.074;19.920;2023-02-02T08:19:18;3.53;;;1.30;;
19919;SDS011;10122;50.074;19.920;2023-02-02T08:21:44;4.37;;;1.80;;
19919;SDS011;10122;50.074;19.920;2023-02-02T08:24:09;2.53;;;1.27;;
19919;SDS011;10122;50.074;19.920;2023-02-02T08:26:35;1.00;;;0.90;;
19919;SDS011;10122;50.074;19.920;2023-02-02T08:29:03;3.93;;;2.10;;
19919;SDS011;10122;50.074;19.920;2023-02-02T08:31:37;4.27;;;2.30;;
19919;SDS011;10122;50.074;19.920;2023-02-02T08:34:05;4.50;;;2.13;;
19919;SDS011;10122;50.074;19.920;2023-02-02T08:36:31;3.47;;;1.87;;
19919;SDS011;10122;50.074;19.920;2023-02-02T08:39:04;5.27;;;2.10;;
19919;SDS011;10122;50.074;19.920;2023-02-02T08:41:32;4.37;;;1.83;;
19919;SDS011;10122;50.074;19.920;2023-02-02T08:43:58;3.07;;;1.63;;
19919;SDS011;10122;50.074;19.920;2023-02-02T08:46:24;2.27;;;1.10;;
19919;SDS011;10122;50.074;19.920;2023-02-02T08:48:49;4.67;;;1.63;;
19919;SDS011;10122;50.074;19.920;2023-02-02T08:51:16;3.07;;;1.30;;
19919;SDS011;10122;50.074;19.920;2023-02-02T08:53:43;3.50;;;1.07;;
19919;SDS011;10122;50.074;19.920;2023-02-02T08:56:10;3.70;;;1.93;;
19919;SDS011;10122;50.074;19.920;2023-02-02T08:58:43;8.20;;;2.30;;
19919;SDS011;10122;50.074;19.920;2023-02-02T09:01:13;4.20;;;2.00;;
19919;SDS011;10122;50.074;19.920;2023-02-02T09:03:47;6.00;;;2.40;;
19919;SDS011;10122;50.074;19.920;2023-02-02T09:06:14;5.20;;;2.60;;
19919;SDS011;10122;50.074;19.920;2023-02-02T09:08:41;4.10;;;1.90;;
19919;SDS011;10122;50.074;19.920;2023-02-02T09:11:14;3.93;;;1.73;;
19919;SDS011;10122;50.074;19.920;2023-02-02T09:13:41;5.83;;;2.37;;
19919;SDS011;10122;50.074;19.920;2023-02-02T09:16:12;4.43;;;2.30;;
19919;SDS011;10122;50.074;19.920;2023-02-02T09:18:39;5.93;;;2.70;;
19919;SDS011;10122;50.074;19.920;2023-02-02T09:21:06;4.50;;;2.43;;
19919;SDS011;10122;50.074;19.920;2023-02-02T09:23:34;5.53;;;2.30;;
19919;SDS011;10122;50.074;19.920;2023-02-02T09:26:12;4.50;;;2.20;;
19919;SDS011;10122;50.074;19.920;2023-02-02T09:28:40;6.13;;;2.30;;
19919;SDS011;10122;50.074;19.920;2023-02-02T09:31:08;5.67;;;2.67;;
19919;SDS011;10122;50.074;19.920;2023-02-02T09:33:34;5.40;;;2.13;;
19919;SDS011;10122;50.074;19.920;2023-02-02T09:36:07;5.93;;;2.40;;
19919;SDS011;10122;50.074;19.920;2023-02-02T09:38:33;8.23;;;2.37;;
19919;SDS011;10122;50.074;19.920;2023-02-02T09:40:59;6.43;;;2.30;;
19919;SDS011;10122;50.074;19.920;2023-02-02T09:52:07;4.37;;;2.10;;
19919;SDS011;10122;50.074;19.920;2023-02-02T09:54:46;6.57;;;2.50;;
19919;SDS011;10122;50.074;19.920;2023-02-02T09:57:28;7.77;;;1.73;;
19919;SDS011;10122;50.074;19.920;2023-02-02T09:59:59;2.70;;;1.30;;
19919;SDS011;10122;50.074;19.920;2023-02-02T10:02:26;5.57;;;2.50;;
19919;SDS011;10122;50.074;19.920;2023-02-02T10:05:07;4.50;;;2.00;;
19919;SDS011;10122;50.074;19.920;2023-02-02T10:07:44;6.37;;;2.43;;
19919;SDS011;10122;50.074;19.920;2023-02-02T10:10:28;6.67;;;2.40;;
19919;SDS011;10122;50.074;19.920;2023-02-02T10:13:04;4.97;;;2.07;;
19919;SDS011;10122;50.074;19.920;2023-02-02T10:15:49;3.73;;;2.00;;
19919;SDS011;10122;50.074;19.920;2023-02-02T10:20:59;6.20;;;2.07;;
19919;SDS011;10122;50.074;19.920;2023-02-02T10:23:34;5.70;;;2.40;;
19919;SDS011;10122;50.074;19.920;2023-02-02T10:26:21;3.80;;;2.17;;
19919;SDS011;10122;50.074;19.920;2023-02-02T10:29:02;4.90;;;2.10;;
19919;SDS011;10122;50.074;19.920;2023-02-02T10:34:25;4.27;;;2.17;;
19919;SDS011;10122;50.074;19.920;2023-02-02T10:37:05;2.20;;;1.37;;
19919;SDS011;10122;50.074;19.920;2023-02-02T10:45:42;5.53;;;2.27;;
19919;SDS011;10122;50.074;19.920;2023-02-02T10:48:12;5.53;;;2.40;;
19919;SDS011;10122;50.074;19.920;2023-02-02T10:50:45;4.63;;;2.63;;
19919;SDS011;10122;50.074;19.920;2023-02-02T10:53:13;6.03;;;2.73;;
19919;SDS011;10122;50.074;19.920;2023-02-02T11:00:54;6.20;;;2.90;;
19919;SDS011;10122;50.074;19.920;2023-02-02T11:03:30;4.40;;;2.50;;
19919;SDS011;10122;50.074;19.920;2023-02-02T11:06:00;3.50;;;2.07;;
19919;SDS011;10122;50.074;19.920;2023-02-02T11:08:47;2.50;;;1.40;;
19919;SDS011;10122;50.074;19.920;2023-02-02T11:11:28;3.83;;;2.10;;
19919;SDS011;10122;50.074;19.920;2023-02-02T11:16:35;5.30;;;2.77;;
19919;SDS011;10122;50.074;19.920;2023-02-02T11:21:47;1.83;;;1.43;;
19919;SDS011;10122;50.074;19.920;2023-02-02T11:26:52;6.37;;;3.40;;
19919;SDS011;10122;50.074;19.920;2023-02-02T11:29:28;5.07;;;2.93;;
19919;SDS011;10122;50.074;19.920;2023-02-02T11:37:33;7.67;;;4.00;;
19919;SDS011;10122;50.074;19.920;2023-02-02T11:42:52;8.47;;;3.80;;
19919;SDS011;10122;50.074;19.920;2023-02-02T11:45:33;10.47;;;4.10;;
19919;SDS011;10122;50.074;19.920;2023-02-02T11:48:05;5.10;;;3.33;;
19919;SDS011;10122;50.074;19.920;2023-02-02T11:50:40;7.63;;;3.67;;
19919;SDS011;10122;50.074;19.920;2023-02-02T11:53:23;5.07;;;2.87;;
19919;SDS011;10122;50.074;19.920;2023-02-02T11:55:55;7.77;;;3.47;;
19919;SDS011;10122;50.074;19.920;2023-02-02T11:58:26;7.43;;;3.07;;
19919;SDS011;10122;50.074;19.920;2023-02-02T12:00:57;4.97;;;3.10;;
19919;SDS011;10122;50.074;19.920;2023-02-02T12:06:16;6.50;;;3.77;;
19919;SDS011;10122;50.074;19.920;2023-02-02T12:08:58;7.13;;;3.40;;
19919;SDS011;10122;50.074;19.920;2023-02-02T12:11:31;6.83;;;3.20;;
19919;SDS011;10122;50.074;19.920;2023-02-02T12:47:14;7.80;;;3.13;;
19919;SDS011;10122;50.074;19.920;2023-02-02T12:49:52;5.77;;;2.87;;
19919;SDS011;10122;50.074;19.920;2023-02-02T12:58:04;6.87;;;3.20;;
19919;SDS011;10122;50.074;19.920;2023-02-02T13:09:07;5.57;;;2.30;;
19919;SDS011;10122;50.074;19.920;2023-02-02T13:11:45;4.40;;;2.40;;
19919;SDS011;10122;50.074;19.920;2023-02-02T13:16:48;6.53;;;2.23;;
19919;SDS011;10122;50.074;19.920;2023-02-02T13:19:23;5.73;;;2.53;;
19919;SDS011;10122;50.074;19.920;2023-02-02T13:22:15;3.90;;;2.17;;
19919;SDS011;10122;50.074;19.920;2023-02-02T13:24:45;5.50;;;2.57;;
19919;SDS011;10122;50.074;19.920;2023-02-02T13:27:16;4.87;;;2.13;;
19919;SDS011;10122;50.074;19.920;2023-02-02T13:29:49;4.10;;;1.90;;
19919;SDS011;10122;50.074;19.920;2023-02-02T13:48:59;6.60;;;2.50;;
19919;SDS011;10122;50.074;19.920;2023-02-02T13:51:41;4.83;;;2.50;;
19919;SDS011;10122;50.074;19.920;2023-02-02T14:01:57;5.63;;;1.93;;
19919;SDS011;10122;50.074;19.920;2023-02-02T14:04:25;5.83;;;2.30;;
19919;SDS011;10122;50.074;19.920;2023-02-02T14:06:57;4.80;;;2.07;;
19919;SDS011;10122;50.074;19.920;2023-02-02T14:09:29;5.83;;;2.50;;
19919;SDS011;10122;50.074;19.920;2023-02-02T14:12:02;7.77;;;3.00;;
19919;SDS011;10122;50.074;19.920;2023-02-02T14:14:31;5.20;;;2.20;;
19919;SDS011;10122;50.074;19.920;2023-02-02T14:17:06;5.67;;;2.23;;
19919;SDS011;10122;50.074;19.920;2023-02-02T14:19:55;4.67;;;2.30;;
19919;SDS011;10122;50.074;19.920;2023-02-02T14:22:41;6.70;;;2.50;;
19919;SDS011;10122;50.074;19.920;2023-02-02T14:27:57;5.60;;;2.40;;
19919;SDS011;10122;50.074;19.920;2023-02-02T14:30:26;5.07;;;2.27;;
19919;SDS011;10122;50.074;19.920;2023-02-02T14:35:55;5.80;;;2.40;;
19919;SDS011;10122;50.074;19.920;2023-02-02T14:41:12;7.33;;;2.80;;
19919;SDS011;10122;50.074;19.920;2023-02-02T14:44:02;3.97;;;2.30;;
19919;SDS011;10122;50.074;19.920;2023-02-02T14:46:33;6.37;;;2.70;;
19919;SDS011;10122;50.074;19.920;2023-02-02T14:51:28;3.40;;;1.90;;
19919;SDS011;10122;50.074;19.920;2023-02-02T14:53:57;4.37;;;2.10;;
19919;SDS011;10122;50.074;19.920;2023-02-02T14:56:40;4.90;;;2.50;;
19919;SDS011;10122;50.074;19.920;2023-02-02T15:04:43;6.17;;;2.57;;
19919;SDS011;10122;50.074;19.920;2023-02-02T15:07:54;6.57;;;2.73;;
19919;SDS011;10122;50.074;19.920;2023-02-02T15:10:02;5.20;;;2.50;;
19919;SDS011;10122;50.074;19.920;2023-02-02T15:23:06;5.23;;;2.17;;
19919;SDS011;10122;50.074;19.920;2023-02-02T15:25:50;6.67;;;2.70;;
19919;SDS011;10122;50.074;19.920;2023-02-02T15:28:31;5.40;;;2.80;;
19919;SDS011;10122;50.074;19.920;2023-02-02T15:33:50;7.83;;;2.90;;
19919;SDS011;10122;50.074;19.920;2023-02-02T15:36:21;6.13;;;2.83;;
19919;SDS011;10122;50.074;19.920;2023-02-02T15:39:33;7.93;;;2.70;;
19919;SDS011;10122;50.074;19.920;2023-02-02T15:41:50;5.00;;;2.40;;
19919;SDS011;10122;50.074;19.920;2023-02-02T15:44:35;6.53;;;2.80;;
19919;SDS011;10122;50.074;19.920;2023-02-02T15:47:03;3.70;;;2.40;;
19919;SDS011;10122;50.074;19.920;2023-02-02T15:49:31;6.87;;;2.20;;
19919;SDS011;10122;50.074;19.920;2023-02-02T15:52:00;6.63;;;1.90;;
19919;SDS011;10122;50.074;19.920;2023-02-02T15:54:35;4.57;;;2.20;;
19919;SDS011;10122;50.074;19.920;2023-02-02T15:57:19;6.03;;;2.10;;
19919;SDS011;10122;50.074;19.920;2023-02-02T15:59:51;3.03;;;1.80;;
19919;SDS011;10122;50.074;19.920;2023-02-02T16:02:37;3.93;;;1.90;;
19919;SDS011;10122;50.074;19.920;2023-02-02T16:08:20;4.93;;;2.10;;
19919;SDS011;10122;50.074;19.920;2023-02-02T16:13:55;5.00;;;2.07;;
19919;SDS011;10122;50.074;19.920;2023-02-02T16:16:36;4.27;;;1.80;;
19919;SDS011;10122;50.074;19.920;2023-02-02T16:21:44;3.07;;;1.80;;
19919;SDS011;10122;50.074;19.920;2023-02-02T16:24:23;5.40;;;1.93;;
19919;SDS011;10122;50.074;19.920;2023-02-02T16:26:52;3.83;;;1.80;;
19919;SDS011;10122;50.074;19.920;2023-02-02T16:29:21;5.57;;;1.63;;
19919;SDS011;10122;50.074;19.920;2023-02-02T16:31:48;4.30;;;1.80;;
19919;SDS011;10122;50.074;19.920;2023-02-02T16:34:20;5.60;;;2.10;;
19919;SDS011;10122;50.074;19.920;2023-02-02T16:37:12;6.20;;;2.40;;
19919;SDS011;10122;50.074;19.920;2023-02-02T16:39:46;4.23;;;2.23;;
19919;SDS011;10122;50.074;19.920;2023-02-02T16:42:26;5.37;;;2.60;;
19919;SDS011;10122;50.074;19.920;2023-02-02T16:44:57;9.40;;;2.97;;
19919;SDS011;10122;50.074;19.920;2023-02-02T16:49:52;5.80;;;2.65;;
19919;SDS011;10122;50.074;19.920;2023-02-02T16:52:49;8.53;;;3.30;;
19919;SDS011;10122;50.074;19.920;2023-02-02T16:55:23;7.20;;;2.60;;
19919;SDS011;10122;50.074;19.920;2023-02-02T16:57:53;6.60;;;2.73;;
19919;SDS011;10122;50.074;19.920;2023-02-02T17:00:20;5.17;;;2.70;;
19919;SDS011;10122;50.074;19.920;2023-02-02T17:02:52;6.60;;;2.30;;
19919;SDS011;10122;50.074;19.920;2023-02-02T17:06:04;4.47;;;2.30;;
19919;SDS011;10122;50.074;19.920;2023-02-02T17:08:13;4.07;;;1.73;;
19919;SDS011;10122;50.074;19.920;2023-02-02T17:11:01;3.60;;;1.73;;
19919;SDS011;10122;50.074;19.920;2023-02-02T17:13:42;3.57;;;2.03;;
19919;SDS011;10122;50.074;19.920;2023-02-02T17:16:12;3.73;;;1.90;;
19919;SDS011;10122;50.074;19.920;2023-02-02T17:18:41;3.73;;;2.00;;
19919;SDS011;10122;50.074;19.920;2023-02-02T17:21:08;3.43;;;1.80;;
19919;SDS011;10122;50.074;19.920;2023-02-02T17:23:39;3.57;;;2.10;;
19919;SDS011;10122;50.074;19.920;2023-02-02T17:26:06;3.97;;;1.90;;
19919;SDS011;10122;50.074;19.920;2023-02-02T17:28:33;4.77;;;2.20;;
19919;SDS011;10122;50.074;19.920;2023-02-02T17:31:02;3.60;;;1.70;;
19919;SDS011;10122;50.074;19.920;2023-02-02T17:33:32;4.43;;;1.87;;
19919;SDS011;10122;50.074;19.920;2023-02-02T17:35:58;3.93;;;2.10;;
19919;SDS011;10122;50.074;19.920;2023-02-02T17:38:24;3.27;;;1.90;;
19919;SDS011;10122;50.074;19.920;2023-02-02T17:40:52;4.53;;;2.23;;
19919;SDS011;10122;50.074;19.920;2023-02-02T17:43:19;4.57;;;2.00;;
19919;SDS011;10122;50.074;19.920;2023-02-02T17:45:45;5.43;;;2.17;;
19919;SDS011;10122;50.074;19.920;2023-02-02T17:48:11;3.50;;;2.00;;
19919;SDS011;10122;50.074;19.920;2023-02-02T17:50:38;2.10;;;1.43;;
19919;SDS011;10122;50.074;19.920;2023-02-02T17:53:07;3.90;;;1.70;;
19919;SDS011;10122;50.074;19.920;2023-02-02T17:55:35;5.10;;;2.03;;
19919;SDS011;10122;50.074;19.920;2023-02-02T17:58:02;6.30;;;2.20;;
19919;SDS011;10122;50.074;19.920;2023-02-02T18:00:28;4.57;;;2.23;;
19919;SDS011;10122;50.074;19.920;2023-02-02T18:02:56;3.93;;;1.97;;
19919;SDS011;10122;50.074;19.920;2023-02-02T18:05:33;5.13;;;2.40;;